Time;durP1;ratioP1;P1;durP2;ratioP2;P2;SDS_P1;SDS_P2;PMS_P1;PMS_P2;Temp;Humidity;BMP_temperature;BMP_pressure;BME280_temperature;BME280_humidity;BME280_pressure;Samples;Min_cycle;Max_cycle;Signal;HPM_P1;HPM_P2
2022/03/17 00:00:39;;;;;;;32.08;25.15;;;10.70;99.90;;;;;;4879701;29;20435;-45
2022/03/17 00:03:05;;;;;;;27.60;24.42;;;10.60;99.90;;;;;;4885322;29;20056;-45
2022/03/17 00:05:30;;;;;;;28.45;23.77;;;10.60;99.90;;;;;;4886214;29;20063;-48
2022/03/17 00:07:56;;;;;;;29.23;24.10;;;10.60;99.90;;;;;;4885717;29;20052;-46
2022/03/17 00:10:22;;;;;;;29.10;24.08;;;10.60;99.90;;;;;;4885709;29;20068;-47
2022/03/17 00:12:48;;;;;;;30.33;25.65;;;10.50;99.90;;;;;;4884942;29;20067;-46
2022/03/17 00:15:16;;;;;;;28.33;24.70;;;10.50;99.90;;;;;;4892884;29;20052;-45
2022/03/17 00:17:42;;;;;;;30.73;26.05;;;10.50;99.90;;;;;;4889629;29;20528;-49
2022/03/17 00:20:10;;;;;;;28.75;25.50;;;10.40;99.90;;;;;;4887608;29;20427;-46
2022/03/17 00:22:37;;;;;;;32.13;24.05;;;10.40;99.90;;;;;;4884135;29;20068;-45
2022/03/17 00:25:05;;;;;;;28.90;24.60;;;10.40;99.90;;;;;;4885222;29;20547;-44
2022/03/17 00:27:31;;;;;;;27.83;24.63;;;10.40;99.90;;;;;;4886192;29;20451;-47
2022/03/17 00:29:57;;;;;;;29.80;24.70;;;10.30;99.90;;;;;;4869178;29;20570;-44
2022/03/17 00:32:24;;;;;;;31.23;24.85;;;10.30;99.90;;;;;;4884851;29;20152;-44
2022/03/17 00:37:35;;;;;;;32.65;25.30;;;10.30;99.90;;;;;;4885928;29;20543;-45
2022/03/17 00:40:02;;;;;;;31.60;26.00;;;10.30;99.90;;;;;;4886481;29;20100;-46
2022/03/17 00:42:28;;;;;;;32.28;26.45;;;10.30;99.90;;;;;;4886046;29;20059;-46
2022/03/17 00:44:55;;;;;;;30.83;25.60;;;10.20;99.90;;;;;;4886682;29;20044;-43
2022/03/17 00:47:21;;;;;;;28.58;25.15;;;10.20;99.90;;;;;;4886165;29;20476;-44
2022/03/17 00:49:48;;;;;;;29.63;25.98;;;10.20;99.90;;;;;;4885947;29;20056;-45
2022/03/17 00:52:14;;;;;;;27.92;24.95;;;10.20;99.90;;;;;;4879685;29;20091;-45
2022/03/17 00:54:41;;;;;;;31.70;24.95;;;10.20;99.90;;;;;;4879999;29;20467;-44
2022/03/17 00:57:08;;;;;;;29.05;24.63;;;10.20;99.90;;;;;;4870043;29;20100;-45
2022/03/17 00:59:36;;;;;;;30.88;25.33;;;10.20;99.90;;;;;;4886984;29;20135;-45
2022/03/17 01:02:04;;;;;;;28.60;23.85;;;10.20;99.90;;;;;;4887715;29;20735;-45
2022/03/17 01:04:30;;;;;;;27.88;24.10;;;10.20;99.90;;;;;;4889312;29;20141;-49
2022/03/17 01:06:55;;;;;;;27.42;24.05;;;10.20;99.90;;;;;;4887503;29;20132;-45
2022/03/17 01:09:21;;;;;;;31.20;25.38;;;10.20;99.90;;;;;;4885261;29;20119;-45
2022/03/17 01:11:47;;;;;;;28.63;25.50;;;10.20;99.90;;;;;;4884670;29;20060;-48
2022/03/17 01:14:13;;;;;;;28.17;25.10;;;10.20;99.90;;;;;;4886126;29;20056;-45
2022/03/17 01:16:40;;;;;;;29.35;26.00;;;10.20;99.90;;;;;;4870619;29;20053;-45
2022/03/17 01:19:06;;;;;;;29.92;25.48;;;10.20;99.90;;;;;;4888855;29;20507;-44
2022/03/17 01:21:32;;;;;;;29.65;26.52;;;10.20;99.90;;;;;;4889130;29;20056;-46
2022/03/17 01:23:58;;;;;;;28.95;25.50;;;10.20;99.90;;;;;;4888606;29;20449;-45
2022/03/17 01:26:24;;;;;;;28.13;25.13;;;10.20;99.90;;;;;;4889245;29;20087;-44
2022/03/17 01:28:50;;;;;;;28.10;24.80;;;10.20;99.90;;;;;;4889790;29;20131;-46
2022/03/17 01:31:16;;;;;;;29.85;26.77;;;10.20;99.90;;;;;;4889391;29;20084;-45
2022/03/17 01:33:41;;;;;;;32.15;26.67;;;10.30;99.90;;;;;;4889024;29;20053;-45
2022/03/17 01:36:07;;;;;;;29.13;26.13;;;10.30;99.90;;;;;;4894277;29;20048;-47
2022/03/17 01:38:33;;;;;;;29.98;26.75;;;10.30;99.90;;;;;;4889761;29;20052;-46
2022/03/17 01:41:00;;;;;;;32.58;29.17;;;10.30;99.90;;;;;;4876507;29;20057;-48
2022/03/17 01:43:26;;;;;;;31.60;27.08;;;10.30;99.90;;;;;;4872219;29;20389;-46
2022/03/17 01:45:54;;;;;;;30.20;27.00;;;10.30;99.90;;;;;;4889103;29;20053;-46
2022/03/17 01:48:21;;;;;;;32.45;29.05;;;10.20;99.90;;;;;;4883075;29;20906;-43
2022/03/17 01:50:52;;;;;;;32.08;28.80;;;10.20;99.90;;;;;;4886047;29;20464;-45
2022/03/17 01:53:18;;;;;;;32.83;29.25;;;10.20;99.90;;;;;;4875909;29;20060;-44
2022/03/17 01:55:43;;;;;;;34.70;30.75;;;10.20;99.90;;;;;;4888791;29;20096;-44
2022/03/17 01:58:10;;;;;;;34.13;30.38;;;10.10;99.90;;;;;;4886864;29;20052;-46
2022/03/17 02:00:37;;;;;;;34.22;30.48;;;10.10;99.90;;;;;;4882711;29;20504;-45
2022/03/17 02:03:03;;;;;;;36.40;31.98;;;10.00;99.90;;;;;;4887362;29;20076;-44
2022/03/17 02:05:29;;;;;;;34.78;31.08;;;10.00;99.90;;;;;;4889500;29;20048;-45
2022/03/17 02:07:55;;;;;;;35.95;32.05;;;10.00;99.90;;;;;;4888105;29;20053;-46
2022/03/17 02:10:22;;;;;;;37.13;32.38;;;10.00;99.90;;;;;;4888863;29;20083;-46
2022/03/17 02:13:09;;;;;;;36.13;32.30;;;10.00;99.90;;;;;;4871225;29;20100;-45
2022/03/17 02:15:35;;;;;;;35.88;31.98;;;10.10;99.90;;;;;;4888543;29;20057;-45
2022/03/17 02:18:02;;;;;;;42.92;35.90;;;10.10;99.90;;;;;;4889259;29;20091;-47
2022/03/17 02:20:29;;;;;;;38.97;33.28;;;10.10;99.90;;;;;;4892737;29;20051;-46
2022/03/17 02:25:52;;;;;;;37.30;33.30;;;10.10;99.90;;;;;;4887604;29;20419;-45
2022/03/17 02:28:18;;;;;;;35.85;31.98;;;10.10;99.90;;;;;;4887611;29;20591;-48
2022/03/17 02:30:45;;;;;;;35.60;31.77;;;10.20;99.90;;;;;;4887454;29;20044;-45
2022/03/17 02:33:13;;;;;;;39.25;33.42;;;10.20;99.90;;;;;;4887863;29;20052;-43
2022/03/17 02:35:39;;;;;;;38.83;33.05;;;10.20;99.90;;;;;;4887735;29;20059;-46
2022/03/17 02:38:07;;;;;;;37.47;33.30;;;10.20;99.90;;;;;;4887354;29;20132;-46
2022/03/17 02:40:36;;;;;;;38.22;33.00;;;10.20;99.90;;;;;;4886462;29;20173;-46
2022/03/17 02:43:04;;;;;;;40.08;35.15;;;10.30;99.90;;;;;;4887239;29;20056;-43
2022/03/17 02:45:31;;;;;;;40.90;33.30;;;10.30;99.90;;;;;;4869879;29;20497;-48
2022/03/17 02:47:57;;;;;;;37.50;33.17;;;10.30;99.90;;;;;;4887228;29;20063;-44
2022/03/17 02:50:24;;;;;;;38.42;34.22;;;10.30;99.90;;;;;;4887105;29;20373;-44
2022/03/17 02:52:50;;;;;;;38.60;33.20;;;10.20;99.90;;;;;;4887146;29;20343;-46
2022/03/17 02:55:16;;;;;;;37.58;33.17;;;10.30;99.90;;;;;;4886500;29;20513;-46
2022/03/17 02:57:44;;;;;;;39.78;34.47;;;10.30;99.90;;;;;;4887189;29;20346;-46
2022/03/17 03:00:12;;;;;;;39.60;34.83;;;10.30;99.90;;;;;;4886399;29;20487;-43
2022/03/17 03:02:38;;;;;;;40.03;35.47;;;10.30;99.90;;;;;;4886906;29;20044;-47
2022/03/17 03:05:05;;;;;;;37.75;33.75;;;10.30;99.90;;;;;;4886446;29;20099;-46
2022/03/17 03:07:31;;;;;;;39.95;34.05;;;10.20;99.90;;;;;;4887986;29;20084;-44
2022/03/17 03:09:57;;;;;;;37.67;33.65;;;10.30;99.90;;;;;;4887198;29;20143;-45
2022/03/17 03:12:23;;;;;;;41.72;36.85;;;10.20;99.90;;;;;;4886983;29;20053;-46
2022/03/17 03:14:49;;;;;;;43.53;38.30;;;10.20;99.90;;;;;;4886937;29;20063;-45
2022/03/17 03:17:16;;;;;;;45.28;38.33;;;10.20;99.90;;;;;;4886660;29;20048;-45
2022/03/17 03:19:42;;;;;;;44.08;39.30;;;10.10;99.90;;;;;;4886588;29;20049;-45
2022/03/17 03:22:08;;;;;;;51.20;42.42;;;10.10;99.90;;;;;;4886697;29;20053;-47
2022/03/17 03:24:36;;;;;;;50.85;41.72;;;9.90;99.90;;;;;;4886557;29;20135;-44
2022/03/17 03:27:03;;;;;;;48.28;42.40;;;9.80;99.90;;;;;;4886489;29;20103;-44
2022/03/17 03:29:28;;;;;;;51.00;43.72;;;9.70;99.90;;;;;;4887228;29;20049;-44
2022/03/17 03:32:03;;;;;;;52.72;45.03;;;9.60;99.90;;;;;;4886559;29;20048;-44
2022/03/17 03:34:30;;;;;;;52.05;44.15;;;9.60;99.90;;;;;;4888570;29;20452;-44
2022/03/17 03:39:41;;;;;;;60.40;47.50;;;9.50;99.90;;;;;;4859579;29;20061;-48
2022/03/17 03:42:09;;;;;;;60.78;48.72;;;9.40;99.90;;;;;;4886336;29;20072;-46
2022/03/17 03:44:36;;;;;;;65.32;52.03;;;9.30;99.90;;;;;;4886060;29;20492;-43
2022/03/17 03:47:03;;;;;;;69.38;53.83;;;9.30;99.90;;;;;;4886264;29;20056;-46
2022/03/17 03:49:28;;;;;;;62.40;47.83;;;9.20;99.90;;;;;;4886060;29;20500;-44
2022/03/17 03:51:54;;;;;;;66.00;49.92;;;9.30;99.90;;;;;;4885695;29;20052;-44
2022/03/17 03:54:23;;;;;;;67.35;50.70;;;9.30;99.90;;;;;;4887185;29;20116;-45
2022/03/17 03:56:51;;;;;;;70.13;51.35;;;9.20;99.90;;;;;;4886329;29;20056;-45
2022/03/17 04:01:45;;;;;;;69.68;51.25;;;9.30;99.90;;;;;;4885709;29;20060;-45
2022/03/17 04:04:20;;;;;;;70.20;51.65;;;9.20;99.90;;;;;;4887096;29;20055;-43
2022/03/17 04:06:50;;;;;;;72.40;50.53;;;9.20;99.90;;;;;;4886379;29;20055;-47
2022/03/17 04:09:18;;;;;;;70.10;50.47;;;9.20;99.90;;;;;;4886573;29;20056;-45
2022/03/17 04:11:45;;;;;;;76.93;52.30;;;9.30;99.90;;;;;;4869132;29;20467;-46
2022/03/17 04:14:12;;;;;;;77.63;52.25;;;9.30;99.90;;;;;;4885878;29;20583;-43
2022/03/17 04:16:38;;;;;;;81.53;52.05;;;9.30;99.90;;;;;;4886987;29;20515;-45
2022/03/17 04:19:04;;;;;;;82.88;50.95;;;9.30;99.90;;;;;;4885522;29;20056;-45
2022/03/17 04:21:31;;;;;;;64.80;41.45;;;9.20;99.90;;;;;;4886225;29;20492;-46
2022/03/17 04:23:57;;;;;;;27.00;19.75;;;9.30;99.90;;;;;;4886281;29;20056;-44
2022/03/17 04:26:24;;;;;;;18.50;14.40;;;9.10;99.90;;;;;;4869960;29;20060;-47
2022/03/17 04:28:55;;;;;;;16.30;12.88;;;9.00;99.90;;;;;;4886011;29;20048;-44
2022/03/17 04:31:21;;;;;;;13.90;11.32;;;8.80;99.90;;;;;;4886027;29;20053;-48
2022/03/17 04:33:48;;;;;;;13.73;11.18;;;8.70;99.90;;;;;;4869550;29;20427;-44
2022/03/17 04:36:14;;;;;;;14.05;10.57;;;8.50;99.90;;;;;;4887322;29;20055;-44
2022/03/17 04:38:40;;;;;;;11.18;8.98;;;8.40;99.90;;;;;;4869673;29;20128;-44
2022/03/17 04:41:06;;;;;;;12.68;10.20;;;8.30;99.90;;;;;;4886587;29;20061;-44
2022/03/17 04:43:32;;;;;;;14.32;10.55;;;8.30;99.90;;;;;;4886436;29;20056;-45
2022/03/17 04:46:02;;;;;;;12.32;10.13;;;8.30;99.90;;;;;;4886464;29;20084;-44
2022/03/17 04:48:28;;;;;;;12.70;9.23;;;8.20;99.90;;;;;;4885773;29;20041;-46
2022/03/17 04:50:54;;;;;;;12.55;10.23;;;8.20;99.90;;;;;;4874164;29;20508;-44
2022/03/17 04:53:32;;;;;;;13.80;10.07;;;8.10;99.90;;;;;;4879875;29;20081;-44
2022/03/17 04:55:59;;;;;;;12.68;9.18;;;8.10;99.90;;;;;;4890265;29;20062;-44
2022/03/17 04:58:29;;;;;;;16.15;9.45;;;8.00;99.90;;;;;;4889302;29;20207;-44
2022/03/17 05:00:57;;;;;;;15.27;10.45;;;8.00;99.90;;;;;;4889738;29;20052;-45
2022/03/17 05:03:23;;;;;;;14.40;9.93;;;7.90;99.90;;;;;;4889801;29;20052;-44
2022/03/17 05:05:49;;;;;;;17.38;10.85;;;7.90;99.90;;;;;;4890845;29;20057;-45
2022/03/17 05:08:16;;;;;;;19.98;11.43;;;8.00;99.90;;;;;;4899963;29;20068;-45
2022/03/17 05:10:42;;;;;;;22.23;12.10;;;7.90;99.90;;;;;;4890211;29;20474;-46
2022/03/17 05:13:09;;;;;;;20.25;12.70;;;7.90;99.90;;;;;;4889006;29;20055;-44
2022/03/17 05:15:36;;;;;;;20.77;11.20;;;7.80;99.90;;;;;;4888436;29;20056;-46
2022/03/17 05:18:03;;;;;;;22.52;12.93;;;7.90;99.90;;;;;;4889882;29;20053;-45
2022/03/17 05:20:29;;;;;;;18.40;12.02;;;7.80;99.90;;;;;;4889108;29;20439;-46
2022/03/17 05:22:55;;;;;;;24.98;13.02;;;7.80;99.90;;;;;;4891263;29;20139;-44
2022/03/17 05:25:21;;;;;;;24.05;11.55;;;7.80;99.90;;;;;;4894835;29;20498;-43
2022/03/17 05:27:50;;;;;;;27.20;12.55;;;7.80;99.90;;;;;;4889333;29;20092;-44
2022/03/17 05:30:19;;;;;;;27.58;11.77;;;7.80;99.90;;;;;;4888165;29;20087;-43
2022/03/17 05:32:47;;;;;;;25.35;10.30;;;7.80;99.90;;;;;;4884896;29;20062;-43
2022/03/17 05:35:14;;;;;;;19.88;9.20;;;7.70;99.90;;;;;;4888641;29;20416;-44
2022/03/17 05:37:44;;;;;;;21.13;9.68;;;7.70;99.90;;;;;;4889230;29;20131;-45
2022/03/17 05:40:15;;;;;;;20.52;8.55;;;7.70;99.90;;;;;;4888281;29;20085;-44
2022/03/17 05:42:42;;;;;;;26.63;8.90;;;7.60;99.90;;;;;;4888955;29;20044;-44
2022/03/17 05:45:08;;;;;;;23.75;8.50;;;7.60;99.90;;;;;;4887782;29;20524;-44
2022/03/17 05:47:38;;;;;;;22.50;8.10;;;7.70;99.90;;;;;;4889060;29;20052;-47
2022/03/17 05:50:06;;;;;;;21.70;9.02;;;7.60;99.90;;;;;;4887376;29;20456;-44
2022/03/17 05:52:32;;;;;;;18.52;7.10;;;7.60;99.90;;;;;;4884818;29;20044;-44
2022/03/17 05:54:57;;;;;;;24.35;7.72;;;7.60;99.90;;;;;;4869658;29;20063;-44
2022/03/17 05:57:24;;;;;;;17.25;6.68;;;7.60;99.90;;;;;;4888938;29;20063;-45
2022/03/17 05:59:51;;;;;;;20.13;6.10;;;7.60;99.90;;;;;;4889022;29;20081;-44
2022/03/17 06:02:16;;;;;;;18.85;6.07;;;7.60;99.90;;;;;;4870983;29;20072;-45
2022/03/17 06:04:42;;;;;;;20.00;5.72;;;7.60;99.90;;;;;;4871922;29;20441;-44
2022/03/17 06:07:08;;;;;;;21.38;6.45;;;7.60;99.90;;;;;;4892660;29;20040;-46
2022/03/17 06:09:33;;;;;;;18.55;6.03;;;7.60;99.90;;;;;;4872385;29;20519;-45
2022/03/17 06:12:00;;;;;;;13.52;4.90;;;7.60;99.90;;;;;;4888277;29;20566;-46
2022/03/17 06:14:27;;;;;;;24.42;6.00;;;7.50;99.90;;;;;;4875931;29;20088;-43
2022/03/17 06:16:53;;;;;;;20.42;5.13;;;7.60;99.90;;;;;;4879739;29;20563;-45
2022/03/17 06:19:19;;;;;;;16.30;4.50;;;7.60;99.90;;;;;;4888196;29;20073;-43
2022/03/17 06:21:45;;;;;;;14.73;4.93;;;7.60;99.90;;;;;;4888690;29;20087;-45
2022/03/17 06:24:11;;;;;;;15.55;5.13;;;7.60;99.90;;;;;;4871054;29;20080;-44
2022/03/17 06:26:37;;;;;;;14.43;3.70;;;7.50;99.90;;;;;;4880870;29;20060;-44
2022/03/17 06:29:03;;;;;;;10.63;4.47;;;7.60;99.90;;;;;;4887623;29;20136;-45
2022/03/17 06:31:28;;;;;;;17.65;3.60;;;7.50;99.90;;;;;;4871164;29;20411;-44
2022/03/17 06:33:55;;;;;;;21.83;4.80;;;7.60;99.90;;;;;;4886927;29;20056;-43
2022/03/17 06:36:22;;;;;;;14.90;4.07;;;7.50;99.90;;;;;;4887589;29;20551;-46
2022/03/17 06:38:49;;;;;;;14.93;3.03;;;7.60;99.90;;;;;;4883700;29;20097;-46
2022/03/17 06:41:15;;;;;;;12.57;2.80;;;7.60;99.90;;;;;;4877934;29;20180;-46
2022/03/17 06:43:41;;;;;;;12.60;3.00;;;7.60;99.90;;;;;;4887628;29;20051;-46
2022/03/17 06:46:08;;;;;;;14.45;2.65;;;7.60;99.90;;;;;;4871253;29;20052;-45
2022/03/17 06:48:34;;;;;;;16.77;2.85;;;7.50;99.90;;;;;;4886397;29;20048;-45
2022/03/17 06:51:00;;;;;;;11.70;2.97;;;7.50;99.90;;;;;;4870156;29;20096;-44
2022/03/17 06:53:26;;;;;;;9.13;2.65;;;7.50;99.90;;;;;;4879003;29;20048;-44
2022/03/17 06:55:52;;;;;;;11.15;2.50;;;7.50;99.90;;;;;;4870126;29;20130;-44
2022/03/17 06:58:18;;;;;;;13.57;2.70;;;7.50;99.90;;;;;;4886259;29;20045;-44
2022/03/17 07:00:43;;;;;;;13.35;2.55;;;7.60;99.90;;;;;;4886878;29;20061;-44
2022/03/17 07:03:09;;;;;;;11.68;2.72;;;7.60;99.90;;;;;;4886951;29;20053;-46
2022/03/17 07:05:36;;;;;;;12.90;2.80;;;7.60;99.90;;;;;;4887787;29;20045;-46
2022/03/17 07:08:02;;;;;;;11.85;2.45;;;7.60;99.90;;;;;;4886616;29;20080;-45
2022/03/17 07:10:29;;;;;;;13.23;2.90;;;7.60;99.90;;;;;;4886588;29;20167;-43
2022/03/17 07:12:55;;;;;;;16.15;2.85;;;7.60;99.90;;;;;;4869706;29;20068;-45
2022/03/17 07:15:21;;;;;;;13.32;3.47;;;7.50;99.90;;;;;;4887551;29;20052;-47
2022/03/17 07:17:47;;;;;;;11.30;2.60;;;7.60;99.90;;;;;;4870984;29;20062;-44
2022/03/17 07:20:15;;;;;;;18.58;4.03;;;7.60;99.90;;;;;;4889878;29;20061;-44
2022/03/17 07:22:42;;;;;;;16.85;3.38;;;7.50;99.90;;;;;;4890247;29;20091;-45
2022/03/17 07:25:09;;;;;;;15.80;2.67;;;7.60;99.90;;;;;;4887201;29;20053;-50
2022/03/17 07:27:48;;;;;;;18.15;2.67;;;7.60;99.90;;;;;;4872955;29;20805;-44
2022/03/17 07:30:19;;;;;;;14.05;2.72;;;7.60;99.90;;;;;;4886492;29;20056;-45
2022/03/17 07:32:52;;;;;;;17.48;3.15;;;7.60;99.90;;;;;;4887123;29;20052;-45
2022/03/17 07:35:18;;;;;;;14.27;2.85;;;7.60;99.90;;;;;;4870451;29;20048;-46
2022/03/17 07:37:54;;;;;;;13.20;2.67;;;7.60;99.90;;;;;;4882566;29;20142;-46
2022/03/17 07:40:20;;;;;;;17.90;3.65;;;7.60;99.90;;;;;;4886372;29;20057;-46
2022/03/17 07:42:46;;;;;;;10.65;2.47;;;7.60;99.90;;;;;;4887291;29;20494;-45
2022/03/17 07:45:11;;;;;;;15.52;3.75;;;7.60;99.90;;;;;;4886192;29;20075;-47
2022/03/17 07:47:45;;;;;;;12.90;3.03;;;7.60;99.90;;;;;;4886597;29;20051;-45
2022/03/17 07:50:11;;;;;;;16.50;3.20;;;7.60;99.90;;;;;;4886495;29;20059;-45
2022/03/17 07:52:38;;;;;;;18.23;3.08;;;7.60;99.90;;;;;;4885465;29;20045;-44
2022/03/17 07:55:04;;;;;;;15.05;2.80;;;7.60;99.90;;;;;;4869818;29;20590;-45
2022/03/17 07:57:31;;;;;;;14.82;3.17;;;7.60;99.90;;;;;;4886201;29;20136;-46
2022/03/17 07:59:58;;;;;;;21.27;3.85;;;7.60;99.90;;;;;;4886336;29;20526;-46
2022/03/17 08:02:24;;;;;;;15.13;3.80;;;7.60;99.90;;;;;;4886848;29;20100;-46
2022/03/17 08:04:52;;;;;;;25.02;6.78;;;7.60;99.90;;;;;;4869552;29;20056;-44
2022/03/17 08:07:17;;;;;;;21.45;4.05;;;7.60;99.90;;;;;;4868310;29;20510;-45
2022/03/17 08:09:43;;;;;;;15.35;2.42;;;7.60;99.90;;;;;;4886411;29;20458;-44
2022/03/17 08:12:09;;;;;;;16.50;2.72;;;7.60;99.90;;;;;;4885360;29;20040;-44
2022/03/17 08:14:35;;;;;;;13.52;3.00;;;7.60;99.90;;;;;;4886457;29;20055;-46
2022/03/17 08:17:01;;;;;;;11.88;3.20;;;7.60;99.90;;;;;;4885293;29;20052;-45
2022/03/17 08:19:26;;;;;;;17.95;3.92;;;7.60;99.90;;;;;;4887933;29;20057;-47
2022/03/17 08:21:58;;;;;;;15.43;3.42;;;7.60;99.90;;;;;;4874339;29;20060;-44
2022/03/17 08:24:27;;;;;;;16.15;3.45;;;7.60;99.90;;;;;;4884955;29;20480;-49
2022/03/17 08:26:55;;;;;;;13.73;2.95;;;7.60;99.90;;;;;;4870317;29;20060;-42
2022/03/17 08:29:21;;;;;;;17.08;3.20;;;7.60;99.90;;;;;;4888568;29;20179;-44
2022/03/17 08:31:47;;;;;;;16.88;3.53;;;7.60;99.90;;;;;;4888683;29;20104;-48
2022/03/17 08:34:13;;;;;;;13.70;3.15;;;7.70;99.90;;;;;;4890192;29;20496;-44
2022/03/17 08:36:39;;;;;;;18.40;3.08;;;7.80;99.90;;;;;;4891412;29;20500;-46
2022/03/17 08:39:05;;;;;;;21.02;3.58;;;8.00;99.90;;;;;;4888389;29;20053;-46
2022/03/17 08:41:31;;;;;;;19.58;4.30;;;8.10;99.90;;;;;;4887281;29;20513;-45
2022/03/17 08:43:58;;;;;;;22.85;3.55;;;8.20;99.90;;;;;;4886538;29;20148;-44
2022/03/17 08:49:21;;;;;;;14.70;3.30;;;8.20;99.90;;;;;;4885333;29;20049;-43
2022/03/17 08:51:50;;;;;;;20.42;3.35;;;8.10;99.90;;;;;;4881564;29;20465;-45
2022/03/17 08:54:18;;;;;;;15.18;4.05;;;8.00;99.90;;;;;;4886661;29;20102;-44
2022/03/17 08:56:43;;;;;;;22.98;5.28;;;8.00;99.90;;;;;;4886784;29;20056;-48
2022/03/17 08:59:10;;;;;;;21.80;5.70;;;8.00;99.90;;;;;;4885785;29;20104;-46
2022/03/17 09:01:39;;;;;;;14.68;5.20;;;8.00;99.90;;;;;;4868908;29;20064;-48
2022/03/17 09:04:05;;;;;;;20.05;4.18;;;8.00;99.90;;;;;;4886257;29;20419;-47
2022/03/17 09:06:32;;;;;;;18.33;3.78;;;8.10;99.90;;;;;;4886503;29;20491;-46
2022/03/17 09:08:58;;;;;;;13.40;3.28;;;8.40;99.90;;;;;;4886338;29;20604;-46
2022/03/17 09:11:24;;;;;;;16.63;2.92;;;8.70;99.90;;;;;;4884106;29;20123;-45
2022/03/17 09:13:50;;;;;;;16.70;3.20;;;8.90;99.90;;;;;;4886752;29;20131;-49
2022/03/17 09:16:19;;;;;;;13.25;3.28;;;9.10;99.90;;;;;;4885386;29;20041;-45
2022/03/17 09:18:45;;;;;;;20.00;3.10;;;9.10;99.90;;;;;;4885592;29;20510;-46
2022/03/17 09:21:11;;;;;;;19.80;3.40;;;9.10;99.90;;;;;;4877066;29;20464;-43
2022/03/17 09:23:37;;;;;;;19.63;2.83;;;9.20;99.90;;;;;;4884134;29;20053;-45
2022/03/17 09:26:03;;;;;;;15.52;3.03;;;9.20;99.90;;;;;;4886649;29;20071;-48
2022/03/17 09:28:29;;;;;;;14.27;3.70;;;9.20;99.90;;;;;;4880474;29;20049;-44
2022/03/17 09:30:55;;;;;;;11.48;2.17;;;9.20;99.90;;;;;;4883220;29;20144;-44
2022/03/17 09:33:25;;;;;;;14.48;2.85;;;9.30;99.90;;;;;;4868452;29;20117;-47
2022/03/17 09:35:57;;;;;;;18.23;3.33;;;9.40;99.90;;;;;;4884461;29;20056;-44
2022/03/17 09:38:24;;;;;;;15.50;3.00;;;9.50;99.90;;;;;;4883932;29;20148;-47
2022/03/17 09:40:50;;;;;;;13.07;3.00;;;9.50;99.90;;;;;;4887895;29;20052;-46
2022/03/17 09:43:18;;;;;;;20.35;3.13;;;9.70;99.90;;;;;;4872018;29;20403;-44
2022/03/17 09:45:46;;;;;;;14.68;3.42;;;9.80;99.90;;;;;;4889312;29;20807;-45
2022/03/17 09:48:14;;;;;;;10.63;2.25;;;10.00;99.90;;;;;;4888468;29;21401;-48
2022/03/17 09:50:41;;;;;;;11.88;2.80;;;10.20;99.90;;;;;;4885735;29;20103;-47
2022/03/17 09:53:08;;;;;;;16.67;2.88;;;10.30;99.90;;;;;;4896327;29;20047;-49
2022/03/17 09:55:35;;;;;;;15.52;2.70;;;10.50;99.90;;;;;;4884861;29;20052;-48
2022/03/17 09:58:06;;;;;;;11.20;3.00;;;10.60;99.90;;;;;;4896933;29;20626;-47
2022/03/17 10:00:48;;;;;;;17.23;2.88;;;10.80;99.90;;;;;;4895273;29;20526;-47
2022/03/17 10:03:25;;;;;;;10.43;3.38;;;10.70;99.90;;;;;;4888528;29;20471;-46
2022/03/17 10:05:52;;;;;;;14.85;3.33;;;10.90;99.90;;;;;;4888001;29;20048;-48
2022/03/17 10:08:20;;;;;;;11.77;4.10;;;11.00;99.90;;;;;;4871023;29;20134;-47
2022/03/17 10:10:47;;;;;;;13.23;3.13;;;11.10;99.90;;;;;;4887706;29;20491;-45
2022/03/17 10:13:16;;;;;;;11.88;2.70;;;11.10;99.90;;;;;;4886401;29;20558;-45
2022/03/17 10:15:45;;;;;;;15.98;3.72;;;11.00;99.90;;;;;;4888235;29;20079;-45
2022/03/17 10:18:25;;;;;;;14.50;3.03;;;11.10;99.90;;;;;;4887136;29;20056;-44
2022/03/17 10:21:10;;;;;;;13.65;2.60;;;11.10;99.90;;;;;;4887912;29;20456;-47
2022/03/17 10:24:04;;;;;;;16.27;2.67;;;11.30;99.90;;;;;;4871087;29;20479;-47
2022/03/17 10:26:46;;;;;;;8.23;2.20;;;11.20;99.90;;;;;;4896809;29;20192;-46
2022/03/17 10:29:25;;;;;;;16.38;3.00;;;11.10;99.90;;;;;;4879588;29;20579;-45
2022/03/17 10:32:00;;;;;;;11.77;3.00;;;11.30;99.90;;;;;;4897234;29;20512;-46
2022/03/17 10:34:29;;;;;;;14.02;3.05;;;11.30;99.90;;;;;;4890538;29;20059;-47
2022/03/17 10:37:15;;;;;;;11.32;2.58;;;11.40;99.90;;;;;;4896465;29;20049;-47
2022/03/17 10:39:54;;;;;;;10.90;2.70;;;11.50;99.90;;;;;;4887022;29;20508;-45
2022/03/17 10:42:22;;;;;;;10.23;2.53;;;11.50;99.90;;;;;;4886356;29;20136;-44
2022/03/17 10:44:58;;;;;;;14.02;2.60;;;11.30;99.90;;;;;;4887812;29;20048;-45
2022/03/17 10:47:33;;;;;;;13.30;3.15;;;11.20;99.90;;;;;;4887231;29;20124;-46
2022/03/17 10:50:17;;;;;;;14.40;3.20;;;11.30;99.90;;;;;;4886065;29;20449;-48
2022/03/17 10:52:49;;;;;;;12.65;2.75;;;11.20;99.90;;;;;;4877951;29;20052;-48
2022/03/17 10:55:25;;;;;;;17.30;3.85;;;11.20;99.90;;;;;;4886929;29;20053;-46
2022/03/17 10:58:15;;;;;;;17.42;3.72;;;11.40;99.90;;;;;;4886555;29;20079;-45
2022/03/17 11:00:52;;;;;;;13.68;3.10;;;11.50;99.90;;;;;;4847572;29;20125;-45
2022/03/17 11:03:20;;;;;;;16.63;3.38;;;11.30;99.90;;;;;;4848292;29;20092;-45
2022/03/17 11:05:49;;;;;;;15.70;2.83;;;11.50;99.90;;;;;;4850766;29;20138;-47
2022/03/17 11:08:21;;;;;;;13.57;2.85;;;11.50;99.90;;;;;;4850804;29;20063;-53
2022/03/17 11:10:47;;;;;;;11.13;2.55;;;11.50;99.90;;;;;;4860917;29;20054;-46
2022/03/17 11:13:13;;;;;;;16.95;3.30;;;11.60;99.90;;;;;;4845693;29;20049;-47
2022/03/17 11:15:43;;;;;;;11.80;2.97;;;11.90;99.90;;;;;;4833022;29;20089;-45
2022/03/17 11:18:22;;;;;;;10.43;3.20;;;11.90;99.90;;;;;;4861660;29;20177;-42
2022/03/17 11:20:48;;;;;;;13.75;3.35;;;11.70;99.90;;;;;;4855907;29;20062;-46
2022/03/17 11:23:24;;;;;;;11.80;3.38;;;11.60;99.90;;;;;;4855178;29;20441;-45
2022/03/17 11:25:57;;;;;;;11.80;3.17;;;11.40;99.90;;;;;;4843864;29;20515;-46
2022/03/17 11:28:34;;;;;;;14.50;3.53;;;11.40;99.90;;;;;;4847461;29;20049;-45
2022/03/17 11:31:03;;;;;;;16.42;3.17;;;11.50;99.90;;;;;;4847760;29;20691;-46
2022/03/17 11:33:39;;;;;;;12.48;3.25;;;11.50;99.90;;;;;;4834385;29;20592;-46
2022/03/17 11:36:08;;;;;;;18.60;4.10;;;11.50;99.90;;;;;;4847228;29;20194;-44
2022/03/17 11:38:38;;;;;;;14.20;2.78;;;11.60;99.90;;;;;;4862975;29;20060;-47
2022/03/17 11:41:17;;;;;;;13.48;3.03;;;11.60;99.90;;;;;;4874647;29;20453;-49
2022/03/17 11:44:01;;;;;;;13.98;2.97;;;11.50;99.90;;;;;;4886919;29;20067;-46
2022/03/17 11:46:44;;;;;;;12.38;2.70;;;11.40;99.90;;;;;;4885263;29;20067;-48
2022/03/17 11:49:26;;;;;;;13.95;2.92;;;11.40;99.90;;;;;;4869253;29;20571;-46
2022/03/17 11:51:57;;;;;;;15.57;2.45;;;11.30;99.90;;;;;;4885631;29;20419;-46
2022/03/17 11:54:23;;;;;;;10.25;3.20;;;11.40;99.90;;;;;;4886624;29;20103;-49
2022/03/17 11:56:53;;;;;;;12.02;2.88;;;11.40;99.90;;;;;;4881556;29;20064;-51
2022/03/17 11:59:25;;;;;;;13.93;3.42;;;11.50;99.90;;;;;;4887595;29;20056;-45
2022/03/17 12:01:55;;;;;;;15.47;3.10;;;11.60;99.90;;;;;;4895167;29;20423;-46
2022/03/17 12:04:30;;;;;;;14.73;3.22;;;11.60;99.90;;;;;;4894003;29;20058;-45
2022/03/17 12:07:13;;;;;;;14.00;2.95;;;11.60;99.90;;;;;;4895009;29;20078;-45
2022/03/17 12:09:39;;;;;;;12.60;3.03;;;11.70;99.90;;;;;;4890429;29;20450;-46
2022/03/17 12:12:25;;;;;;;14.05;3.10;;;11.80;99.90;;;;;;4895055;29;20151;-47
2022/03/17 12:14:59;;;;;;;16.15;3.35;;;11.80;99.90;;;;;;4896082;29;20554;-46
2022/03/17 12:17:26;;;;;;;8.95;2.15;;;11.80;99.90;;;;;;4893838;29;20056;-46
2022/03/17 12:20:14;;;;;;;12.02;2.40;;;11.70;99.90;;;;;;4896510;29;20059;-46
2022/03/17 12:22:43;;;;;;;15.77;3.28;;;11.70;99.90;;;;;;4892981;29;20184;-48
2022/03/17 12:25:20;;;;;;;13.05;2.75;;;11.80;99.90;;;;;;4875556;29;20096;-49
2022/03/17 12:28:05;;;;;;;10.65;2.88;;;11.70;99.90;;;;;;4885957;29;20064;-46
2022/03/17 12:30:33;;;;;;;13.77;3.13;;;11.90;99.90;;;;;;4885847;29;20056;-45
2022/03/17 12:33:01;;;;;;;12.52;2.85;;;12.00;99.90;;;;;;4886191;29;20056;-45
2022/03/17 12:35:34;;;;;;;12.63;2.50;;;11.80;99.90;;;;;;4886192;29;20051;-49
2022/03/17 12:38:05;;;;;;;9.43;2.40;;;11.70;99.90;;;;;;4867972;29;20059;-46
2022/03/17 12:40:42;;;;;;;13.50;2.75;;;11.50;99.90;;;;;;4885291;29;20064;-47
2022/03/17 12:43:20;;;;;;;11.07;2.63;;;11.40;99.90;;;;;;4885551;29;20056;-47
2022/03/17 12:45:48;;;;;;;13.07;2.45;;;11.40;99.90;;;;;;4886191;29;20052;-47
2022/03/17 12:48:16;;;;;;;9.50;2.63;;;11.40;99.90;;;;;;4885816;29;20488;-45
2022/03/17 12:50:42;;;;;;;12.07;3.22;;;11.30;99.90;;;;;;4869444;29;20052;-47
2022/03/17 12:53:09;;;;;;;8.55;2.28;;;11.20;99.90;;;;;;4896539;29;20551;-45
2022/03/17 12:55:35;;;;;;;13.63;2.67;;;11.20;99.90;;;;;;4892128;29;20056;-48
2022/03/17 12:58:02;;;;;;;11.07;3.00;;;11.30;99.90;;;;;;4891627;29;20141;-44